sensor_id;sensor_type;location;lat;lon;timestamp;pressure;altitude;pressure_sealevel;temperature;humidity
14067;BME280;7108;42.684;23.350;2023-02-17T00:03:43;96285.44;;;3.20;100.00
14067;BME280;7108;42.684;23.350;2023-02-17T00:06:12;96288.91;;;3.21;100.00
14067;BME280;7108;42.684;23.350;2023-02-17T00:08:38;96295.38;;;3.15;100.00
14067;BME280;7108;42.684;23.350;2023-02-17T00:11:03;96282.41;;;3.08;100.00
14067;BME280;7108;42.684;23.350;2023-02-17T00:13:29;96283.91;;;3.14;100.00
14067;BME280;7108;42.684;23.350;2023-02-17T00:15:54;96289.38;;;3.04;100.00
14067;BME280;7108;42.684;23.350;2023-02-17T00:18:20;96278.06;;;2.94;100.00
14067;BME280;7108;42.684;23.350;2023-02-17T00:20:45;96283.09;;;2.95;100.00
14067;BME280;7108;42.684;23.350;2023-02-17T00:23:10;96274.97;;;3.05;100.00
14067;BME280;7108;42.684;23.350;2023-02-17T00:25:37;96270.84;;;2.94;100.00
14067;BME280;7108;42.684;23.350;2023-02-17T00:28:02;96275.69;;;2.92;100.00
14067;BME280;7108;42.684;23.350;2023-02-17T00:30:28;96274.38;;;2.90;100.00
14067;BME280;7108;42.684;23.350;2023-02-17T00:32:53;96263.75;;;2.90;100.00
14067;BME280;7108;42.684;23.350;2023-02-17T00:35:19;96262.59;;;2.96;100.00
14067;BME280;7108;42.684;23.350;2023-02-17T00:37:44;96259.72;;;2.92;100.00
14067;BME280;7108;42.684;23.350;2023-02-17T00:40:11;96259.44;;;2.94;100.00
14067;BME280;7108;42.684;23.350;2023-02-17T00:42:36;96261.44;;;3.02;100.00
14067;BME280;7108;42.684;23.350;2023-02-17T00:45:02;96261.44;;;3.02;100.00
14067;BME280;7108;42.684;23.350;2023-02-17T00:47:28;96265.75;;;2.98;100.00
14067;BME280;7108;42.684;23.350;2023-02-17T00:49:53;96269.28;;;2.93;100.00
14067;BME280;7108;42.684;23.350;2023-02-17T00:52:19;96259.06;;;3.00;100.00
14067;BME280;7108;42.684;23.350;2023-02-17T00:54:44;96267.13;;;2.95;100.00
14067;BME280;7108;42.684;23.350;2023-02-17T00:57:10;96259.72;;;2.92;100.00
14067;BME280;7108;42.684;23.350;2023-02-17T00:59:35;96254.16;;;2.89;100.00
14067;BME280;7108;42.684;23.350;2023-02-17T01:02:01;96261.16;;;2.85;100.00
14067;BME280;7108;42.684;23.350;2023-02-17T01:04:27;96260.09;;;2.81;100.00
14067;BME280;7108;42.684;23.350;2023-02-17T01:06:52;96251.56;;;2.84;100.00
14067;BME280;7108;42.684;23.350;2023-02-17T01:09:18;96243.88;;;2.82;100.00
14067;BME280;7108;42.684;23.350;2023-02-17T01:11:43;96243.59;;;2.84;100.00
14067;BME280;7108;42.684;23.350;2023-02-17T01:14:11;96243.00;;;2.87;100.00
14067;BME280;7108;42.684;23.350;2023-02-17T01:16:39;96242.84;;;2.78;100.00
14067;BME280;7108;42.684;23.350;2023-02-17T01:19:07;96249.25;;;2.77;100.00
14067;BME280;7108;42.684;23.350;2023-02-17T01:21:33;96240.47;;;2.77;100.00
14067;BME280;7108;42.684;23.350;2023-02-17T01:24:01;96240.56;;;2.90;100.00
14067;BME280;7108;42.684;23.350;2023-02-17T01:26:28;96238.03;;;2.80;100.00
14067;BME280;7108;42.684;23.350;2023-02-17T01:28:54;96242.78;;;2.83;100.00
14067;BME280;7108;42.684;23.350;2023-02-17T01:31:21;96235.38;;;2.80;100.00
14067;BME280;7108;42.684;23.350;2023-02-17T01:33:47;96230.00;;;2.85;100.00
14067;BME280;7108;42.684;23.350;2023-02-17T01:36:16;96234.91;;;2.97;100.00
14067;BME280;7108;42.684;23.350;2023-02-17T01:38:42;96231.22;;;2.93;100.00
14067;BME280;7108;42.684;23.350;2023-02-17T01:41:08;96237.84;;;2.95;100.00
14067;BME280;7108;42.684;23.350;2023-02-17T01:43:34;96231.59;;;2.86;100.00
14067;BME280;7108;42.684;23.350;2023-02-17T01:46:02;96242.16;;;2.91;100.00
14067;BME280;7108;42.684;23.350;2023-02-17T01:51:05;96255.00;;;2.61;100.00
14067;BME280;7108;42.684;23.350;2023-02-17T01:53:52;96249.75;;;2.56;100.00
14067;BME280;7108;42.684;23.350;2023-02-17T01:56:20;96253.53;;;2.50;100.00
14067;BME280;7108;42.684;23.350;2023-02-17T01:58:50;96249.25;;;2.54;100.00
14067;BME280;7108;42.684;23.350;2023-02-17T02:01:18;96246.31;;;2.56;100.00
14067;BME280;7108;42.684;23.350;2023-02-17T02:03:45;96229.59;;;2.50;100.00
14067;BME280;7108;42.684;23.350;2023-02-17T02:06:13;96247.91;;;2.57;100.00
14067;BME280;7108;42.684;23.350;2023-02-17T02:09:30;96242.09;;;2.50;100.00
14067;BME280;7108;42.684;23.350;2023-02-17T02:11:36;96242.06;;;2.55;100.00
14067;BME280;7108;42.684;23.350;2023-02-17T02:14:03;96220.84;;;2.50;100.00
14067;BME280;7108;42.684;23.350;2023-02-17T02:17:07;96228.63;;;2.41;100.00
14067;BME280;7108;42.684;23.350;2023-02-17T02:25:09;96235.72;;;2.51;100.00
14067;BME280;7108;42.684;23.350;2023-02-17T02:35:20;96225.97;;;2.41;100.00
14067;BME280;7108;42.684;23.350;2023-02-17T02:40:22;96231.06;;;2.38;100.00
14067;BME280;7108;42.684;23.350;2023-02-17T02:42:53;96223.38;;;2.36;100.00
14067;BME280;7108;42.684;23.350;2023-02-17T02:45:18;96228.63;;;2.41;100.00
14067;BME280;7108;42.684;23.350;2023-02-17T02:47:52;96234.19;;;2.45;100.00
14067;BME280;7108;42.684;23.350;2023-02-17T02:56:01;96224.19;;;2.32;100.00
14067;BME280;7108;42.684;23.350;2023-02-17T03:01:21;96229.81;;;2.30;100.00
14067;BME280;7108;42.684;23.350;2023-02-17T03:06:35;96237.50;;;2.32;100.00
14067;BME280;7108;42.684;23.350;2023-02-17T03:09:11;96242.75;;;2.37;100.00
14067;BME280;7108;42.684;23.350;2023-02-17T03:11:39;96242.44;;;2.43;100.00
14067;BME280;7108;42.684;23.350;2023-02-17T03:14:09;96242.94;;;2.45;100.00
14067;BME280;7108;42.684;23.350;2023-02-17T03:16:36;96242.50;;;2.38;100.00
14067;BME280;7108;42.684;23.350;2023-02-17T03:19:02;96236.91;;;2.40;100.00
14067;BME280;7108;42.684;23.350;2023-02-17T03:21:34;96238.63;;;2.26;100.00
14067;BME280;7108;42.684;23.350;2023-02-17T03:24:00;96241.22;;;2.31;100.00
14067;BME280;7108;42.684;23.350;2023-02-17T03:26:25;96244.69;;;2.31;100.00
14067;BME280;7108;42.684;23.350;2023-02-17T03:28:51;96247.88;;;2.33;100.00
14067;BME280;7108;42.684;23.350;2023-02-17T03:31:16;96232.84;;;2.19;100.00
14067;BME280;7108;42.684;23.350;2023-02-17T03:33:41;96235.81;;;2.17;100.00
14067;BME280;7108;42.684;23.350;2023-02-17T03:36:07;96227.81;;;2.17;100.00
14067;BME280;7108;42.684;23.350;2023-02-17T03:38:32;96233.34;;;2.21;100.00
14067;BME280;7108;42.684;23.350;2023-02-17T03:40:58;96239.72;;;2.25;100.00
14067;BME280;7108;42.684;23.350;2023-02-17T03:43:23;96241.84;;;2.23;100.00
14067;BME280;7108;42.684;23.350;2023-02-17T03:45:49;96226.78;;;2.13;100.00
14067;BME280;7108;42.684;23.350;2023-02-17T03:48:14;96230.28;;;2.09;100.00
14067;BME280;7108;42.684;23.350;2023-02-17T03:50:39;96229.97;;;2.15;100.00
14067;BME280;7108;42.684;23.350;2023-02-17T03:53:05;96220.41;;;2.14;100.00
14067;BME280;7108;42.684;23.350;2023-02-17T03:55:30;96217.25;;;2.12;100.00
14067;BME280;7108;42.684;23.350;2023-02-17T03:57:56;96222.63;;;2.02;100.00
14067;BME280;7108;42.684;23.350;2023-02-17T04:00:21;96231.31;;;2.13;100.00
14067;BME280;7108;42.684;23.350;2023-02-17T04:02:47;96232.00;;;2.23;100.00
14067;BME280;7108;42.684;23.350;2023-02-17T04:05:12;96214.84;;;2.11;100.00
14067;BME280;7108;42.684;23.350;2023-02-17T04:07:37;96228.03;;;2.21;100.00
14067;BME280;7108;42.684;23.350;2023-02-17T04:10:03;96239.56;;;2.11;100.00
14067;BME280;7108;42.684;23.350;2023-02-17T04:12:29;96239.72;;;1.96;100.00
14067;BME280;7108;42.684;23.350;2023-02-17T04:14:54;96231.22;;;1.94;100.00
14067;BME280;7108;42.684;23.350;2023-02-17T04:17:20;96223.09;;;1.81;100.00
14067;BME280;7108;42.684;23.350;2023-02-17T04:19:45;96219.16;;;1.74;100.00
14067;BME280;7108;42.684;23.350;2023-02-17T04:22:10;96238.16;;;1.91;100.00
14067;BME280;7108;42.684;23.350;2023-02-17T04:24:36;96227.88;;;1.79;100.00
14067;BME280;7108;42.684;23.350;2023-02-17T04:27:05;96234.16;;;1.93;100.00
14067;BME280;7108;42.684;23.350;2023-02-17T04:29:31;96221.38;;;1.95;100.00
14067;BME280;7108;42.684;23.350;2023-02-17T04:31:57;96238.56;;;2.02;100.00
14067;BME280;7108;42.684;23.350;2023-02-17T04:34:22;96230.47;;;1.89;100.00
14067;BME280;7108;42.684;23.350;2023-02-17T04:36:48;96234.66;;;1.95;100.00
14067;BME280;7108;42.684;23.350;2023-02-17T04:39:13;96227.00;;;1.89;100.00
14067;BME280;7108;42.684;23.350;2023-02-17T04:41:39;96240.13;;;1.75;100.00
14067;BME280;7108;42.684;23.350;2023-02-17T04:44:04;96236.03;;;1.88;100.00
14067;BME280;7108;42.684;23.350;2023-02-17T04:46:30;96225.16;;;1.89;100.00
14067;BME280;7108;42.684;23.350;2023-02-17T04:48:55;96249.47;;;2.01;100.00
14067;BME280;7108;42.684;23.350;2023-02-17T04:51:20;96245.19;;;2.10;100.00
14067;BME280;7108;42.684;23.350;2023-02-17T04:53:46;96241.94;;;2.13;100.00
14067;BME280;7108;42.684;23.350;2023-02-17T04:56:11;96233.63;;;1.91;100.00
14067;BME280;7108;42.684;23.350;2023-02-17T04:58:37;96231.00;;;1.86;100.00
14067;BME280;7108;42.684;23.350;2023-02-17T05:01:02;96229.44;;;1.85;100.00
14067;BME280;7108;42.684;23.350;2023-02-17T05:03:28;96228.66;;;1.85;100.00
14067;BME280;7108;42.684;23.350;2023-02-17T05:05:53;96246.69;;;1.88;100.00
14067;BME280;7108;42.684;23.350;2023-02-17T05:08:19;96262.16;;;1.81;100.00
14067;BME280;7108;42.684;23.350;2023-02-17T05:10:44;96255.78;;;1.77;100.00
14067;BME280;7108;42.684;23.350;2023-02-17T05:13:10;96259.13;;;1.59;100.00
14067;BME280;7108;42.684;23.350;2023-02-17T05:15:35;96259.69;;;1.51;100.00
14067;BME280;7108;42.684;23.350;2023-02-17T05:18:01;96267.31;;;1.67;100.00
14067;BME280;7108;42.684;23.350;2023-02-17T05:20:26;96260.41;;;1.66;100.00
14067;BME280;7108;42.684;23.350;2023-02-17T05:22:52;96271.50;;;1.73;100.00
14067;BME280;7108;42.684;23.350;2023-02-17T05:25:17;96269.34;;;1.75;100.00
14067;BME280;7108;42.684;23.350;2023-02-17T05:27:43;96275.19;;;1.77;100.00
14067;BME280;7108;42.684;23.350;2023-02-17T05:30:08;96260.00;;;1.83;100.00
14067;BME280;7108;42.684;23.350;2023-02-17T05:32:34;96281.09;;;1.69;100.00
14067;BME280;7108;42.684;23.350;2023-02-17T05:34:59;96269.69;;;1.69;100.00
14067;BME280;7108;42.684;23.350;2023-02-17T05:37:25;96269.59;;;1.79;100.00
14067;BME280;7108;42.684;23.350;2023-02-17T05:39:51;96288.28;;;2.02;100.00
14067;BME280;7108;42.684;23.350;2023-02-17T05:42:16;96286.38;;;2.07;100.00
14067;BME280;7108;42.684;23.350;2023-02-17T05:44:42;96282.38;;;2.10;100.00
14067;BME280;7108;42.684;23.350;2023-02-17T05:47:07;96279.16;;;2.13;100.00
14067;BME280;7108;42.684;23.350;2023-02-17T05:49:33;96272.16;;;2.22;100.00
14067;BME280;7108;42.684;23.350;2023-02-17T05:51:58;96277.19;;;2.23;100.00
14067;BME280;7108;42.684;23.350;2023-02-17T05:54:23;96283.56;;;2.27;100.00
14067;BME280;7108;42.684;23.350;2023-02-17T05:56:49;96294.44;;;2.26;100.00
14067;BME280;7108;42.684;23.350;2023-02-17T05:59:14;96291.97;;;2.34;100.00
14067;BME280;7108;42.684;23.350;2023-02-17T06:01:40;96287.72;;;2.38;100.00
14067;BME280;7108;42.684;23.350;2023-02-17T06:04:05;96293.94;;;2.52;100.00
14067;BME280;7108;42.684;23.350;2023-02-17T06:06:31;96298.59;;;2.65;100.00
14067;BME280;7108;42.684;23.350;2023-02-17T06:08:56;96302.47;;;2.77;100.00
14067;BME280;7108;42.684;23.350;2023-02-17T06:11:21;96293.56;;;2.87;100.00
14067;BME280;7108;42.684;23.350;2023-02-17T06:13:47;96288.94;;;2.97;100.00
14067;BME280;7108;42.684;23.350;2023-02-17T06:16:12;96296.81;;;3.07;100.00
14067;BME280;7108;42.684;23.350;2023-02-17T06:18:38;96304.03;;;3.25;100.00
14067;BME280;7108;42.684;23.350;2023-02-17T06:21:03;96298.03;;;3.15;100.00
14067;BME280;7108;42.684;23.350;2023-02-17T06:23:29;96304.31;;;3.23;100.00
14067;BME280;7108;42.684;23.350;2023-02-17T06:25:55;96295.41;;;3.33;100.00
14067;BME280;7108;42.684;23.350;2023-02-17T06:28:20;96299.41;;;3.54;100.00
14067;BME280;7108;42.684;23.350;2023-02-17T06:30:46;96302.22;;;3.62;100.00
14067;BME280;7108;42.684;23.350;2023-02-17T06:33:11;96304.97;;;3.76;100.00
14067;BME280;7108;42.684;23.350;2023-02-17T06:35:37;96309.75;;;3.92;100.00
14067;BME280;7108;42.684;23.350;2023-02-17T06:38:03;96309.47;;;3.93;100.00
14067;BME280;7108;42.684;23.350;2023-02-17T06:40:28;96298.25;;;3.96;100.00
14067;BME280;7108;42.684;23.350;2023-02-17T06:42:53;96307.56;;;4.12;100.00
14067;BME280;7108;42.684;23.350;2023-02-17T06:45:19;96305.94;;;4.16;100.00
14067;BME280;7108;42.684;23.350;2023-02-17T06:47:44;96316.13;;;4.28;100.00
14067;BME280;7108;42.684;23.350;2023-02-17T06:50:10;96309.06;;;4.18;100.00
14067;BME280;7108;42.684;23.350;2023-02-17T06:52:36;96313.97;;;4.30;100.00
14067;BME280;7108;42.684;23.350;2023-02-17T06:55:01;96311.78;;;4.32;100.00
14067;BME280;7108;42.684;23.350;2023-02-17T06:57:27;96318.84;;;4.41;100.00
14067;BME280;7108;42.684;23.350;2023-02-17T06:59:52;96311.44;;;4.52;100.00
14067;BME280;7108;42.684;23.350;2023-02-17T07:02:18;96304.84;;;4.62;100.00
14067;BME280;7108;42.684;23.350;2023-02-17T07:04:44;96320.41;;;4.74;100.00
14067;BME280;7108;42.684;23.350;2023-02-17T07:07:10;96314.28;;;4.87;100.00
14067;BME280;7108;42.684;23.350;2023-02-17T07:09:36;96318.97;;;4.95;100.00
14067;BME280;7108;42.684;23.350;2023-02-17T07:12:03;96325.31;;;5.12;100.00
14067;BME280;7108;42.684;23.350;2023-02-17T07:14:28;96314.53;;;5.17;100.00
14067;BME280;7108;42.684;23.350;2023-02-17T07:16:56;96322.63;;;5.25;100.00
14067;BME280;7108;42.684;23.350;2023-02-17T07:19:21;96328.22;;;5.64;100.00
14067;BME280;7108;42.684;23.350;2023-02-17T07:21:47;96318.38;;;6.00;100.00
14067;BME280;7108;42.684;23.350;2023-02-17T07:24:12;96316.38;;;6.49;100.00
14067;BME280;7108;42.684;23.350;2023-02-17T07:26:39;96302.91;;;6.84;100.00
14067;BME280;7108;42.684;23.350;2023-02-17T07:29:05;96315.44;;;6.97;96.33
14067;BME280;7108;42.684;23.350;2023-02-17T07:31:32;96306.72;;;6.92;94.58
14067;BME280;7108;42.684;23.350;2023-02-17T07:34:01;96314.84;;;7.09;100.00
14067;BME280;7108;42.684;23.350;2023-02-17T07:36:26;96312.00;;;7.44;97.09
14067;BME280;7108;42.684;23.350;2023-02-17T07:38:52;96313.50;;;7.92;94.13
14067;BME280;7108;42.684;23.350;2023-02-17T07:41:20;96327.28;;;8.49;92.13
14067;BME280;7108;42.684;23.350;2023-02-17T07:43:47;96314.13;;;8.73;80.38
14067;BME280;7108;42.684;23.350;2023-02-17T07:46:13;96321.13;;;9.20;78.44
14067;BME280;7108;42.684;23.350;2023-02-17T07:48:39;96317.38;;;9.41;73.87
14067;BME280;7108;42.684;23.350;2023-02-17T07:53:32;96296.34;;;9.43;66.94
14067;BME280;7108;42.684;23.350;2023-02-17T07:55:57;96300.63;;;9.44;65.63
14067;BME280;7108;42.684;23.350;2023-02-17T07:58:23;96311.81;;;9.46;64.98
14067;BME280;7108;42.684;23.350;2023-02-17T08:00:48;96315.69;;;9.37;65.91
14067;BME280;7108;42.684;23.350;2023-02-17T08:03:13;96309.03;;;9.34;67.95
14067;BME280;7108;42.684;23.350;2023-02-17T08:05:39;96311.91;;;9.29;68.06
14067;BME280;7108;42.684;23.350;2023-02-17T08:08:06;96310.44;;;9.40;69.92
14067;BME280;7108;42.684;23.350;2023-02-17T08:10:50;96300.00;;;9.39;66.69
14067;BME280;7108;42.684;23.350;2023-02-17T08:13:34;96307.41;;;9.50;67.36
14067;BME280;7108;42.684;23.350;2023-02-17T08:15:59;96313.25;;;9.44;66.30
14067;BME280;7108;42.684;23.350;2023-02-17T08:18:25;96306.31;;;9.43;66.99
14067;BME280;7108;42.684;23.350;2023-02-17T08:20:50;96303.00;;;9.37;66.15
14067;BME280;7108;42.684;23.350;2023-02-17T08:23:19;96305.34;;;9.47;66.04
14067;BME280;7108;42.684;23.350;2023-02-17T08:25:44;96291.44;;;9.45;65.24
14067;BME280;7108;42.684;23.350;2023-02-17T08:28:10;96300.13;;;9.42;64.11
14067;BME280;7108;42.684;23.350;2023-02-17T08:30:36;96297.31;;;9.39;63.96
14067;BME280;7108;42.684;23.350;2023-02-17T08:33:04;96299.34;;;9.42;63.75
14067;BME280;7108;42.684;23.350;2023-02-17T08:35:29;96291.72;;;9.44;64.96
14067;BME280;7108;42.684;23.350;2023-02-17T08:37:55;96294.31;;;9.40;64.93
14067;BME280;7108;42.684;23.350;2023-02-17T08:40:20;96299.94;;;9.47;64.38
14067;BME280;7108;42.684;23.350;2023-02-17T08:42:46;96293.94;;;9.50;65.74
14067;BME280;7108;42.684;23.350;2023-02-17T08:45:13;96297.22;;;9.56;65.81
14067;BME280;7108;42.684;23.350;2023-02-17T08:47:39;96283.59;;;9.61;65.20
14067;BME280;7108;42.684;23.350;2023-02-17T08:50:06;96288.53;;;9.59;65.14
14067;BME280;7108;42.684;23.350;2023-02-17T08:52:33;96289.88;;;9.65;64.53
14067;BME280;7108;42.684;23.350;2023-02-17T08:54:59;96278.81;;;9.66;63.96
14067;BME280;7108;42.684;23.350;2023-02-17T08:57:25;96294.06;;;9.82;62.97
14067;BME280;7108;42.684;23.350;2023-02-17T08:59:52;96293.53;;;9.89;65.73
14067;BME280;7108;42.684;23.350;2023-02-17T09:02:18;96285.94;;;9.91;63.07
14067;BME280;7108;42.684;23.350;2023-02-17T09:04:43;96289.53;;;9.95;63.74
14067;BME280;7108;42.684;23.350;2023-02-17T09:07:11;96292.00;;;10.08;62.34
14067;BME280;7108;42.684;23.350;2023-02-17T09:09:38;96285.25;;;10.02;59.91
14067;BME280;7108;42.684;23.350;2023-02-17T09:12:03;96290.63;;;10.02;59.92
14067;BME280;7108;42.684;23.350;2023-02-17T09:14:32;96284.91;;;10.04;62.12
14067;BME280;7108;42.684;23.350;2023-02-17T09:16:57;96287.69;;;10.16;63.38
14067;BME280;7108;42.684;23.350;2023-02-17T09:19:24;96271.38;;;10.33;63.19
14067;BME280;7108;42.684;23.350;2023-02-17T09:21:50;96276.28;;;10.51;61.63
14067;BME280;7108;42.684;23.350;2023-02-17T09:24:16;96277.88;;;10.64;60.52
14067;BME280;7108;42.684;23.350;2023-02-17T09:26:42;96283.00;;;10.77;61.03
14067;BME280;7108;42.684;23.350;2023-02-17T09:29:07;96265.47;;;10.83;58.96
14067;BME280;7108;42.684;23.350;2023-02-17T09:31:34;96277.38;;;10.82;53.00
14067;BME280;7108;42.684;23.350;2023-02-17T09:34:00;96262.91;;;10.87;49.43
14067;BME280;7108;42.684;23.350;2023-02-17T09:36:31;96266.53;;;11.03;48.12
14067;BME280;7108;42.684;23.350;2023-02-17T09:38:57;96273.84;;;11.14;44.52
14067;BME280;7108;42.684;23.350;2023-02-17T09:41:41;96263.53;;;11.28;43.82
14067;BME280;7108;42.684;23.350;2023-02-17T09:44:17;96273.44;;;11.36;43.99
14067;BME280;7108;42.684;23.350;2023-02-17T09:46:49;96259.28;;;11.51;42.13
14067;BME280;7108;42.684;23.350;2023-02-17T09:49:20;96251.50;;;11.49;42.01
14067;BME280;7108;42.684;23.350;2023-02-17T09:55:14;96258.25;;;11.67;41.91
14067;BME280;7108;42.684;23.350;2023-02-17T09:57:53;96256.91;;;11.73;41.81
14067;BME280;7108;42.684;23.350;2023-02-17T10:00:25;96256.47;;;11.71;41.66
14067;BME280;7108;42.684;23.350;2023-02-17T10:05:34;96246.81;;;11.82;41.21
14067;BME280;7108;42.684;23.350;2023-02-17T10:10:37;96240.13;;;11.91;40.89
14067;BME280;7108;42.684;23.350;2023-02-17T10:13:03;96244.28;;;12.01;41.14
14067;BME280;7108;42.684;23.350;2023-02-17T10:15:37;96226.13;;;12.01;41.13
14067;BME280;7108;42.684;23.350;2023-02-17T10:21:16;96224.63;;;12.16;40.65
14067;BME280;7108;42.684;23.350;2023-02-17T10:23:46;96233.97;;;12.18;39.35
14067;BME280;7108;42.684;23.350;2023-02-17T10:31:43;96204.72;;;12.20;39.36
14067;BME280;7108;42.684;23.350;2023-02-17T10:34:28;96206.31;;;12.37;39.38
14067;BME280;7108;42.684;23.350;2023-02-17T10:37:12;96203.16;;;12.35;38.48
14067;BME280;7108;42.684;23.350;2023-02-17T10:42:04;96202.09;;;12.51;38.40
14067;BME280;7108;42.684;23.350;2023-02-17T10:44:33;96192.16;;;12.55;39.01
14067;BME280;7108;42.684;23.350;2023-02-17T10:47:02;96195.72;;;12.59;38.51
14067;BME280;7108;42.684;23.350;2023-02-17T10:49:30;96191.44;;;12.58;38.07
14067;BME280;7108;42.684;23.350;2023-02-17T10:52:09;96183.97;;;12.67;39.07
14067;BME280;7108;42.684;23.350;2023-02-17T10:54:43;96187.25;;;12.88;38.52
14067;BME280;7108;42.684;23.350;2023-02-17T10:57:12;96191.41;;;12.85;37.86
14067;BME280;7108;42.684;23.350;2023-02-17T10:59:46;96177.22;;;12.88;37.40
14067;BME280;7108;42.684;23.350;2023-02-17T11:02:33;96171.63;;;12.97;37.85
14067;BME280;7108;42.684;23.350;2023-02-17T11:05:00;96183.59;;;12.96;37.59
14067;BME280;7108;42.684;23.350;2023-02-17T11:07:32;96176.34;;;13.00;37.50
14067;BME280;7108;42.684;23.350;2023-02-17T11:10:00;96176.97;;;13.09;38.02
14067;BME280;7108;42.684;23.350;2023-02-17T11:12:32;96174.75;;;13.14;37.35
14067;BME280;7108;42.684;23.350;2023-02-17T11:14:58;96171.78;;;13.19;36.92
14067;BME280;7108;42.684;23.350;2023-02-17T11:17:29;96178.16;;;13.26;37.22
14067;BME280;7108;42.684;23.350;2023-02-17T11:20:01;96166.91;;;13.24;37.21
14067;BME280;7108;42.684;23.350;2023-02-17T11:22:35;96172.38;;;13.28;37.13
14067;BME280;7108;42.684;23.350;2023-02-17T11:28:00;96172.06;;;13.29;34.92
14067;BME280;7108;42.684;23.350;2023-02-17T11:30:28;96157.72;;;13.29;35.49
14067;BME280;7108;42.684;23.350;2023-02-17T11:32:54;96164.44;;;13.35;35.89
14067;BME280;7108;42.684;23.350;2023-02-17T11:38:13;96160.69;;;13.39;35.17
14067;BME280;7108;42.684;23.350;2023-02-17T11:40:39;96149.84;;;13.39;35.39
14067;BME280;7108;42.684;23.350;2023-02-17T11:43:05;96153.47;;;13.62;35.95
14067;BME280;7108;42.684;23.350;2023-02-17T11:46:39;96155.56;;;13.69;35.22
14067;BME280;7108;42.684;23.350;2023-02-17T11:51:40;96146.31;;;13.54;35.98
14067;BME280;7108;42.684;23.350;2023-02-17T12:00:22;96127.38;;;13.73;36.17
14067;BME280;7108;42.684;23.350;2023-02-17T12:03:19;96127.63;;;13.83;36.05
14067;BME280;7108;42.684;23.350;2023-02-17T12:25:02;96116.16;;;14.28;35.52
14067;BME280;7108;42.684;23.350;2023-02-17T12:33:33;96099.19;;;14.12;35.28
14067;BME280;7108;42.684;23.350;2023-02-17T12:35:59;96103.31;;;14.25;35.22
14067;BME280;7108;42.684;23.350;2023-02-17T12:38:37;96088.00;;;13.94;34.93
14067;BME280;7108;42.684;23.350;2023-02-17T12:41:07;96074.78;;;13.93;34.57
14067;BME280;7108;42.684;23.350;2023-02-17T12:46:22;96076.41;;;13.97;35.02
14067;BME280;7108;42.684;23.350;2023-02-17T12:51:27;96086.56;;;14.19;34.98
14067;BME280;7108;42.684;23.350;2023-02-17T13:02:01;96064.44;;;14.17;34.91
14067;BME280;7108;42.684;23.350;2023-02-17T13:04:28;96063.38;;;14.22;35.44
14067;BME280;7108;42.684;23.350;2023-02-17T13:07:03;96063.75;;;14.20;34.59
14067;BME280;7108;42.684;23.350;2023-02-17T13:09:41;96062.34;;;14.30;34.70
14067;BME280;7108;42.684;23.350;2023-02-17T13:14:51;96067.28;;;14.46;34.21
14067;BME280;7108;42.684;23.350;2023-02-17T13:22:40;96067.19;;;14.62;34.02
14067;BME280;7108;42.684;23.350;2023-02-17T13:25:06;96058.19;;;14.58;33.74
14067;BME280;7108;42.684;23.350;2023-02-17T13:27:36;96052.88;;;14.65;34.11
14067;BME280;7108;42.684;23.350;2023-02-17T13:30:07;96055.75;;;14.75;34.30
14067;BME280;7108;42.684;23.350;2023-02-17T13:32:37;96055.13;;;14.82;33.83
14067;BME280;7108;42.684;23.350;2023-02-17T13:35:28;96059.41;;;14.83;33.23
14067;BME280;7108;42.684;23.350;2023-02-17T13:37:54;96054.47;;;14.66;33.32
14067;BME280;7108;42.684;23.350;2023-02-17T13:42:48;96050.41;;;14.56;34.05
14067;BME280;7108;42.684;23.350;2023-02-17T13:47:57;96048.13;;;14.58;34.00
14067;BME280;7108;42.684;23.350;2023-02-17T13:50:34;96042.66;;;14.55;33.53
14067;BME280;7108;42.684;23.350;2023-02-17T13:53:02;96051.16;;;14.53;33.60
14067;BME280;7108;42.684;23.350;2023-02-17T13:55:30;96040.00;;;14.58;33.18
14067;BME280;7108;42.684;23.350;2023-02-17T13:57:58;96034.09;;;14.53;33.47
14067;BME280;7108;42.684;23.350;2023-02-17T14:00:29;96038.38;;;14.54;33.14
14067;BME280;7108;42.684;23.350;2023-02-17T14:02:58;96047.28;;;14.54;33.07
14067;BME280;7108;42.684;23.350;2023-02-17T14:08:03;96042.66;;;14.55;33.28
14067;BME280;7108;42.684;23.350;2023-02-17T14:10:30;96046.97;;;14.37;33.24
14067;BME280;7108;42.684;23.350;2023-02-17T14:12:55;96045.00;;;14.34;33.66
14067;BME280;7108;42.684;23.350;2023-02-17T14:15:26;96051.94;;;14.32;33.97
14067;BME280;7108;42.684;23.350;2023-02-17T14:17:52;96040.78;;;14.14;34.27
14067;BME280;7108;42.684;23.350;2023-02-17T14:20:33;96041.38;;;14.08;34.48
14067;BME280;7108;42.684;23.350;2023-02-17T14:23:07;96051.44;;;14.07;34.87
14067;BME280;7108;42.684;23.350;2023-02-17T14:25:40;96049.81;;;14.03;35.25
14067;BME280;7108;42.684;23.350;2023-02-17T14:28:35;96057.59;;;13.85;35.53
14067;BME280;7108;42.684;23.350;2023-02-17T14:31:08;96053.56;;;13.76;35.71
14067;BME280;7108;42.684;23.350;2023-02-17T14:33:33;96059.31;;;13.74;35.70
14067;BME280;7108;42.684;23.350;2023-02-17T14:36:01;96048.06;;;13.73;36.28
14067;BME280;7108;42.684;23.350;2023-02-17T14:38:29;96061.25;;;13.74;36.08
14067;BME280;7108;42.684;23.350;2023-02-17T14:40:57;96054.91;;;13.67;36.26
14067;BME280;7108;42.684;23.350;2023-02-17T14:43:23;96066.88;;;13.66;36.57
14067;BME280;7108;42.684;23.350;2023-02-17T14:45:49;96050.13;;;13.60;37.27
14067;BME280;7108;42.684;23.350;2023-02-17T14:48:15;96043.72;;;13.49;36.96
14067;BME280;7108;42.684;23.350;2023-02-17T14:50:41;96049.41;;;13.44;37.32
14067;BME280;7108;42.684;23.350;2023-02-17T14:53:44;96049.06;;;13.46;37.09
14067;BME280;7108;42.684;23.350;2023-02-17T14:56:24;96046.72;;;13.44;37.26
14067;BME280;7108;42.684;23.350;2023-02-17T14:58:50;96052.97;;;13.48;37.44
14067;BME280;7108;42.684;23.350;2023-02-17T15:01:23;96055.59;;;13.45;37.22
14067;BME280;7108;42.684;23.350;2023-02-17T15:03:49;96052.47;;;13.43;37.45
14067;BME280;7108;42.684;23.350;2023-02-17T15:06:19;96055.88;;;13.40;37.34
14067;BME280;7108;42.684;23.350;2023-02-17T15:08:45;96053.09;;;13.36;37.59
14067;BME280;7108;42.684;23.350;2023-02-17T15:11:20;96053.00;;;13.33;37.64